createdAt,value
2022-07-26T00:00:05.264Z,50.01
2022-07-26T00:02:31.867Z,49.97
2022-07-26T00:04:58.410Z,50.37
2022-07-26T00:07:24.926Z,50.63
2022-07-26T00:09:51.549Z,49.87
2022-07-26T00:12:18.074Z,50.04
2022-07-26T00:14:44.555Z,48.50
2022-07-26T00:17:11.053Z,48.37
2022-07-26T00:19:37.525Z,47.92
2022-07-26T00:22:22.681Z,47.76
2022-07-26T00:24:49.200Z,48.03
2022-07-26T00:27:15.657Z,49.32
2022-07-26T00:29:42.148Z,49.46
2022-07-26T00:32:08.689Z,48.49
2022-07-26T00:34:35.201Z,49.65
2022-07-26T00:37:01.746Z,50.22
2022-07-26T00:39:28.857Z,52.14
2022-07-26T00:41:55.426Z,51.05
2022-07-26T00:44:21.938Z,50.50
2022-07-26T00:46:48.767Z,50.62
2022-07-26T00:49:15.427Z,50.80
2022-07-26T00:51:42.235Z,50.39
2022-07-26T00:54:12.983Z,51.02
2022-07-26T00:56:40.066Z,51.21
2022-07-26T00:59:06.847Z,51.48
2022-07-26T01:01:33.778Z,50.76
2022-07-26T01:04:00.426Z,52.53
2022-07-26T01:06:27.632Z,51.59
2022-07-26T01:08:54.809Z,52.42
2022-07-26T01:11:21.452Z,51.83
2022-07-26T01:13:51.060Z,51.94
2022-07-26T01:16:17.921Z,52.16
2022-07-26T01:18:44.985Z,53.30
2022-07-26T01:21:13.764Z,52.20
2022-07-26T01:23:41.914Z,51.86
2022-07-26T01:26:08.652Z,52.58
2022-07-26T01:28:39.841Z,52.66
2022-07-26T01:31:08.265Z,53.07
2022-07-26T01:33:35.219Z,52.25
2022-07-26T01:36:01.833Z,53.71
2022-07-26T01:38:29.023Z,53.74
2022-07-26T01:40:55.595Z,55.01
2022-07-26T01:43:22.276Z,53.52
2022-07-26T01:45:48.993Z,55.08
2022-07-26T01:48:15.578Z,54.99
2022-07-26T01:50:42.530Z,54.05
2022-07-26T01:53:09.408Z,53.12
2022-07-26T01:55:36.574Z,53.13
2022-07-26T01:58:06.275Z,52.71
2022-07-26T02:00:33.304Z,52.30
2022-07-26T02:03:00.851Z,53.43
2022-07-26T02:05:27.360Z,52.53
2022-07-26T02:07:53.899Z,53.45
2022-07-26T02:10:23.389Z,53.28
2022-07-26T02:12:50.279Z,52.56
2022-07-26T02:15:17.154Z,52.95
2022-07-26T02:17:44.523Z,51.66
2022-07-26T02:20:11.047Z,51.40
2022-07-26T02:22:37.576Z,52.08
2022-07-26T02:25:05.520Z,51.35
2022-07-26T02:27:32.682Z,52.96
2022-07-26T02:29:59.235Z,52.36
2022-07-26T02:32:26.028Z,51.66
2022-07-26T02:34:52.564Z,51.65
2022-07-26T02:37:19.058Z,52.40
2022-07-26T02:39:45.600Z,50.83
2022-07-26T02:42:12.137Z,50.95
2022-07-26T02:44:38.640Z,53.22
2022-07-26T02:47:05.222Z,52.89
2022-07-26T02:49:31.805Z,51.56
2022-07-26T02:51:58.277Z,51.63
2022-07-26T02:54:24.717Z,55.19
2022-07-26T02:56:51.204Z,52.47
2022-07-26T02:59:17.704Z,52.31
2022-07-26T03:01:44.273Z,52.95
2022-07-26T03:04:11.135Z,51.83
2022-07-26T03:06:37.976Z,50.97
2022-07-26T03:09:04.968Z,52.70
2022-07-26T03:11:31.437Z,52.47
2022-07-26T03:13:57.984Z,52.83
2022-07-26T03:16:29.011Z,52.34
2022-07-26T03:18:55.795Z,51.61
2022-07-26T03:21:22.370Z,52.62
2022-07-26T03:23:49.141Z,54.19
2022-07-26T03:26:15.902Z,52.15
2022-07-26T03:28:45.224Z,52.73
2022-07-26T03:31:13.046Z,51.75
2022-07-26T03:33:40.750Z,53.50
2022-07-26T03:36:11.394Z,54.06
2022-07-26T03:38:38.274Z,52.41
2022-07-26T03:41:04.825Z,53.86
2022-07-26T03:43:31.368Z,52.39
2022-07-26T03:46:03.076Z,51.72
2022-07-26T03:48:31.165Z,52.43
2022-07-26T03:50:57.688Z,51.34
2022-07-26T03:53:24.324Z,52.32
2022-07-26T03:56:09.671Z,53.27
2022-07-26T03:58:36.177Z,52.18
2022-07-26T04:01:04.124Z,52.11
2022-07-26T04:03:30.748Z,51.48
2022-07-26T04:05:57.490Z,50.96
2022-07-26T04:08:23.963Z,53.27
2022-07-26T04:10:53.629Z,51.56
2022-07-26T04:13:20.729Z,52.30
2022-07-26T04:15:47.348Z,51.54
2022-07-26T04:18:16.760Z,54.09
2022-07-26T04:20:43.795Z,53.08
2022-07-26T04:23:11.633Z,52.55
2022-07-26T04:25:41.248Z,52.12
2022-07-26T04:28:08.595Z,54.73
2022-07-26T04:30:35.541Z,52.76
2022-07-26T04:33:02.222Z,53.82
2022-07-26T04:35:28.808Z,55.18
2022-07-26T04:37:55.329Z,53.13
2022-07-26T04:40:23.740Z,54.70
2022-07-26T04:42:51.574Z,53.61
2022-07-26T04:45:18.707Z,54.44
2022-07-26T04:47:49.693Z,53.78
2022-07-26T04:50:17.767Z,54.14
2022-07-26T04:52:44.318Z,54.71
2022-07-26T04:55:10.948Z,53.50
2022-07-26T04:57:37.700Z,55.00
2022-07-26T05:00:21.157Z,55.77
2022-07-26T05:02:50.485Z,55.27
2022-07-26T05:05:17.032Z,54.05
2022-07-26T05:07:46.047Z,55.59
2022-07-26T05:10:14.198Z,55.16
2022-07-26T05:12:40.657Z,54.52
2022-07-26T05:15:09.394Z,52.04
2022-07-26T05:17:41.914Z,53.45
2022-07-26T05:20:10.130Z,54.11
2022-07-26T05:22:37.469Z,55.56
2022-07-26T05:25:05.198Z,55.48
2022-07-26T05:27:31.870Z,55.08
2022-07-26T05:29:58.810Z,54.64
2022-07-26T05:32:25.351Z,54.76
2022-07-26T05:34:51.997Z,53.31
2022-07-26T05:37:18.529Z,52.10
2022-07-26T05:39:44.992Z,52.60
2022-07-26T05:42:11.732Z,52.00
2022-07-26T05:44:42.427Z,54.83
2022-07-26T05:47:09.761Z,53.91
2022-07-26T05:49:39.699Z,53.26
2022-07-26T05:52:08.297Z,52.34
2022-07-26T05:54:35.015Z,53.67
2022-07-26T05:57:01.924Z,51.96
2022-07-26T05:59:28.935Z,51.79
2022-07-26T06:01:56.599Z,51.90
2022-07-26T06:04:25.019Z,49.81
2022-07-26T06:06:54.547Z,51.23
2022-07-26T06:09:21.474Z,49.52
2022-07-26T06:11:48.037Z,51.42
2022-07-26T06:14:14.823Z,48.10
2022-07-26T06:16:41.683Z,48.19
2022-07-26T06:19:08.257Z,49.82
2022-07-26T06:21:34.724Z,47.84
2022-07-26T06:24:01.267Z,47.37
2022-07-26T06:26:27.775Z,47.20
2022-07-26T06:28:54.290Z,47.34
2022-07-26T06:31:20.929Z,48.20
2022-07-26T06:33:47.640Z,46.44
2022-07-26T06:36:14.192Z,47.31
2022-07-26T06:38:40.953Z,47.41
2022-07-26T06:41:07.475Z,48.12
2022-07-26T06:43:34.198Z,48.27
2022-07-26T06:46:00.830Z,47.30
2022-07-26T06:48:27.393Z,47.78
2022-07-26T06:50:55.719Z,49.08
2022-07-26T06:53:22.184Z,48.64
2022-07-26T06:55:48.767Z,48.52
2022-07-26T06:58:15.269Z,48.91
2022-07-26T07:00:41.928Z,50.23
2022-07-26T07:03:08.538Z,49.54
2022-07-26T07:05:37.926Z,49.28
2022-07-26T07:08:04.670Z,51.70
2022-07-26T07:10:33.183Z,50.01
2022-07-26T07:13:01.137Z,48.98
2022-07-26T07:15:27.636Z,49.33
2022-07-26T07:17:54.193Z,52.40
2022-07-26T07:20:20.762Z,49.52
2022-07-26T07:22:47.470Z,52.56
2022-07-26T07:25:14.815Z,51.86
2022-07-26T07:27:44.459Z,51.08
2022-07-26T07:30:12.100Z,50.68
2022-07-26T07:32:38.988Z,50.14
2022-07-26T07:35:12.806Z,50.57
2022-07-26T07:37:53.196Z,52.88
2022-07-26T07:40:20.987Z,52.77
2022-07-26T07:42:47.566Z,51.34
2022-07-26T07:45:14.085Z,51.31
2022-07-26T07:47:40.636Z,50.35
2022-07-26T07:50:07.709Z,49.52
2022-07-26T07:52:34.237Z,48.72
2022-07-26T07:55:36.968Z,49.34
2022-07-26T07:57:47.401Z,49.62
2022-07-26T08:00:16.159Z,48.27
2022-07-26T08:02:42.766Z,47.96
2022-07-26T08:05:14.124Z,47.69
2022-07-26T08:07:42.163Z,47.17
2022-07-26T08:10:09.520Z,46.05
2022-07-26T08:12:36.424Z,49.09
2022-07-26T08:15:07.585Z,47.78
2022-07-26T08:17:40.368Z,45.52
2022-07-26T08:20:08.954Z,46.13
2022-07-26T08:22:41.462Z,45.55
2022-07-26T08:25:08.761Z,46.17
2022-07-26T08:27:40.865Z,44.22
2022-07-26T08:30:08.347Z,44.86
2022-07-26T08:32:35.880Z,45.46
2022-07-26T08:35:19.614Z,45.69
2022-07-26T08:37:46.864Z,45.19
2022-07-26T08:40:13.534Z,44.83
2022-07-26T08:42:40.254Z,44.99
2022-07-26T08:45:07.442Z,44.39
2022-07-26T08:47:35.356Z,45.30
2022-07-26T08:50:07.602Z,44.18
2022-07-26T08:52:39.228Z,45.97
2022-07-26T08:55:06.076Z,44.91
2022-07-26T08:57:32.576Z,45.55
2022-07-26T09:00:34.430Z,47.26
2022-07-26T09:03:02.619Z,45.78
2022-07-26T09:05:35.422Z,44.51
2022-07-26T09:08:23.317Z,45.35
2022-07-26T09:10:49.804Z,45.70
2022-07-26T09:13:16.719Z,46.35
2022-07-26T09:15:43.533Z,44.96
2022-07-26T09:18:26.696Z,44.36
2022-07-26T09:20:53.207Z,43.05
2022-07-26T09:23:19.698Z,44.25
2022-07-26T09:25:47.055Z,43.74
2022-07-26T09:28:31.188Z,43.21
2022-07-26T09:31:03.391Z,42.85
2022-07-26T09:33:50.353Z,45.28
2022-07-26T09:36:18.032Z,46.89
2022-07-26T09:38:58.250Z,48.66
2022-07-26T09:41:29.406Z,49.90
2022-07-26T09:44:02.772Z,49.52
2022-07-26T09:46:30.852Z,52.88
2022-07-26T09:49:10.522Z,51.62
2022-07-26T09:51:41.948Z,52.34
2022-07-26T09:54:10.999Z,53.36
2022-07-26T09:56:50.048Z,53.06
2022-07-26T09:59:18.657Z,53.16
2022-07-26T10:01:45.715Z,52.47
2022-07-26T10:04:13.738Z,52.00
2022-07-26T10:06:42.033Z,53.44
2022-07-26T10:09:09.843Z,51.95
2022-07-26T10:11:46.035Z,52.25
2022-07-26T10:14:46.132Z,51.78
2022-07-26T10:17:35.251Z,51.18
2022-07-26T10:20:10.606Z,51.28
2022-07-26T10:22:46.400Z,50.48
2022-07-26T10:25:19.297Z,49.81
2022-07-26T10:27:49.993Z,50.04
2022-07-26T10:30:19.189Z,50.18
2022-07-26T10:32:54.554Z,50.15
2022-07-26T10:35:40.695Z,50.87
2022-07-26T10:38:14.614Z,50.74
2022-07-26T10:41:00.595Z,50.21
2022-07-26T10:43:44.245Z,50.23
2022-07-26T10:46:16.751Z,48.72
2022-07-26T10:49:04.492Z,47.47
2022-07-26T10:51:36.079Z,47.63
2022-07-26T10:54:05.102Z,48.73
2022-07-26T10:56:35.260Z,50.24
2022-07-26T10:59:02.948Z,49.64
2022-07-26T11:01:47.981Z,51.45
2022-07-26T11:04:21.999Z,50.13
2022-07-26T11:06:49.035Z,51.00
2022-07-26T11:09:16.022Z,50.66
2022-07-26T11:11:47.143Z,49.93
2022-07-26T11:14:16.865Z,51.71
2022-07-26T11:16:46.588Z,50.41
2022-07-26T11:19:19.116Z,49.95
2022-07-26T11:21:47.813Z,48.38
2022-07-26T11:24:14.848Z,51.58
2022-07-26T11:26:45.998Z,52.79
2022-07-26T11:29:16.801Z,52.49
2022-07-26T11:31:51.553Z,52.13
2022-07-26T11:34:28.506Z,52.67
2022-07-26T11:36:57.555Z,51.37
2022-07-26T11:39:26.225Z,50.87
2022-07-26T11:42:10.327Z,49.25
2022-07-26T11:44:37.345Z,48.32
2022-07-26T11:47:17.121Z,49.27
2022-07-26T11:50:00.191Z,48.25
2022-07-26T11:52:31.632Z,48.07
2022-07-26T11:54:58.722Z,47.68
2022-07-26T11:57:32.599Z,47.53
2022-07-26T12:00:00.619Z,47.68
2022-07-26T12:02:30.076Z,47.65
2022-07-26T12:05:16.798Z,49.58
2022-07-26T12:07:53.768Z,47.98
2022-07-26T12:10:20.418Z,47.07
2022-07-26T12:12:46.897Z,48.45
2022-07-26T12:15:15.562Z,47.89
2022-07-26T12:17:58.537Z,47.45
2022-07-26T12:20:28.204Z,48.73
2022-07-26T12:23:05.948Z,45.95
2022-07-26T12:25:32.748Z,46.41
2022-07-26T12:27:59.242Z,48.07
2022-07-26T12:30:30.703Z,47.52
2022-07-26T12:33:02.166Z,50.24
2022-07-26T12:35:33.371Z,47.23
2022-07-26T12:38:00.020Z,48.54
2022-07-26T12:40:29.110Z,47.92
2022-07-26T12:43:02.421Z,46.57
2022-07-26T12:45:34.219Z,46.00
2022-07-26T12:48:03.409Z,46.03
2022-07-26T12:50:32.721Z,45.41
2022-07-26T12:53:02.541Z,46.78
2022-07-26T12:55:29.468Z,45.58
2022-07-26T12:57:57.193Z,46.53
2022-07-26T13:00:24.606Z,44.59
2022-07-26T13:02:54.733Z,46.28
2022-07-26T13:05:21.541Z,45.57
2022-07-26T13:07:48.161Z,44.08
2022-07-26T13:10:32.448Z,45.96
2022-07-26T13:12:59.928Z,44.59
2022-07-26T13:15:36.283Z,45.22
2022-07-26T13:18:04.632Z,43.43
2022-07-26T13:20:31.208Z,43.27
2022-07-26T13:22:57.663Z,44.63
2022-07-26T13:25:25.453Z,43.25
2022-07-26T13:27:55.473Z,45.74
2022-07-26T13:30:22.368Z,45.11
2022-07-26T13:32:49.040Z,45.29
2022-07-26T13:35:15.489Z,43.98
2022-07-26T13:37:41.948Z,44.78
2022-07-26T13:40:09.040Z,47.31
2022-07-26T13:42:35.521Z,44.59
2022-07-26T13:45:01.992Z,45.08
2022-07-26T13:47:28.473Z,43.71
2022-07-26T13:49:54.968Z,44.93
2022-07-26T13:52:21.540Z,45.05
2022-07-26T13:54:47.995Z,44.18
2022-07-26T13:57:14.477Z,44.17
2022-07-26T13:59:40.966Z,44.94
2022-07-26T14:02:07.997Z,44.57
2022-07-26T14:04:34.707Z,45.06
2022-07-26T14:07:01.435Z,45.86
2022-07-26T14:09:28.099Z,43.30
2022-07-26T14:11:54.607Z,44.44
2022-07-26T14:14:24.076Z,43.53
2022-07-26T14:16:50.593Z,43.17
2022-07-26T14:19:17.763Z,42.41
2022-07-26T14:21:59.684Z,42.38
2022-07-26T14:24:27.156Z,42.00
2022-07-26T14:26:58.596Z,41.90
2022-07-26T14:29:26.244Z,42.84
2022-07-26T14:31:53.128Z,44.64
2022-07-26T14:34:19.708Z,44.93
2022-07-26T14:36:46.215Z,43.57
2022-07-26T14:39:12.686Z,41.80
2022-07-26T14:41:39.342Z,43.66
2022-07-26T14:44:06.453Z,46.17
2022-07-26T14:46:32.980Z,44.71
2022-07-26T14:48:59.469Z,44.62
2022-07-26T14:51:26.007Z,43.64
2022-07-26T14:53:52.559Z,44.82
2022-07-26T14:56:19.029Z,43.03
2022-07-26T14:58:45.446Z,42.83
2022-07-26T15:01:11.994Z,43.11
2022-07-26T15:03:38.568Z,45.19
2022-07-26T15:06:05.147Z,43.48
2022-07-26T15:08:31.596Z,42.46
2022-07-26T15:10:58.158Z,43.88
2022-07-26T15:13:24.721Z,43.25
2022-07-26T15:15:51.264Z,42.09
2022-07-26T15:18:17.869Z,42.58
2022-07-26T15:20:44.535Z,42.09
2022-07-26T15:23:12.408Z,42.26
2022-07-26T15:25:39.023Z,41.49
2022-07-26T15:28:05.608Z,42.08
2022-07-26T15:30:33.255Z,41.52
2022-07-26T15:33:02.501Z,42.86
2022-07-26T15:35:29.779Z,41.68
2022-07-26T15:37:57.514Z,41.58
2022-07-26T15:40:24.636Z,41.58
2022-07-26T15:42:52.207Z,40.82
2022-07-26T15:45:20.427Z,41.07
2022-07-26T15:48:03.134Z,39.98
2022-07-26T15:50:35.241Z,39.86
2022-07-26T15:53:01.875Z,40.40
2022-07-26T15:55:28.473Z,40.19
2022-07-26T15:57:55.255Z,40.66
2022-07-26T16:00:21.795Z,41.52
2022-07-26T16:02:48.315Z,40.87
2022-07-26T16:05:14.977Z,40.12
2022-07-26T16:07:42.659Z,41.30
2022-07-26T16:10:12.077Z,41.83
2022-07-26T16:12:39.663Z,41.54
2022-07-26T16:15:08.198Z,40.23
2022-07-26T16:17:34.852Z,39.80
2022-07-26T16:20:01.763Z,39.83
2022-07-26T16:22:28.423Z,41.87
2022-07-26T16:24:54.867Z,40.74
2022-07-26T16:27:21.365Z,39.37
2022-07-26T16:29:52.153Z,40.13
2022-07-26T16:32:21.061Z,39.90
2022-07-26T16:34:47.630Z,39.96
2022-07-26T16:37:14.180Z,41.19
2022-07-26T16:39:40.660Z,39.90
2022-07-26T16:42:07.587Z,40.19
2022-07-26T16:44:35.975Z,39.06
2022-07-26T16:47:02.802Z,40.34
2022-07-26T16:49:29.428Z,40.60
2022-07-26T16:51:56.866Z,40.09
2022-07-26T16:54:23.423Z,39.05
2022-07-26T16:56:49.871Z,38.37
2022-07-26T16:59:17.027Z,39.12
2022-07-26T17:01:44.070Z,41.41
2022-07-26T17:04:10.570Z,39.91
2022-07-26T17:06:37.050Z,39.61
2022-07-26T17:09:03.963Z,38.77
2022-07-26T17:11:30.456Z,39.33
2022-07-26T17:13:57.041Z,39.51
2022-07-26T17:16:25.021Z,39.77
2022-07-26T17:18:52.802Z,39.41
2022-07-26T17:21:19.410Z,38.67
2022-07-26T17:23:45.959Z,39.51
2022-07-26T17:26:12.601Z,39.35
2022-07-26T17:28:39.050Z,39.01
2022-07-26T17:31:05.583Z,39.31
2022-07-26T17:33:33.701Z,39.93
2022-07-26T17:36:03.279Z,39.05
2022-07-26T17:38:31.063Z,40.54
2022-07-26T17:40:57.498Z,40.32
2022-07-26T17:43:25.158Z,39.87
2022-07-26T17:46:03.857Z,39.93
2022-07-26T17:48:30.956Z,40.81
2022-07-26T17:50:57.491Z,39.70
2022-07-26T17:53:33.966Z,40.56
2022-07-26T17:56:01.788Z,38.98
2022-07-26T17:58:28.257Z,39.47
2022-07-26T18:00:54.798Z,39.04
2022-07-26T18:03:22.147Z,39.01
2022-07-26T18:05:50.114Z,39.29
2022-07-26T18:08:16.749Z,39.72
2022-07-26T18:10:47.567Z,39.29
2022-07-26T18:13:17.665Z,40.02
2022-07-26T18:15:44.152Z,41.45
2022-07-26T18:18:10.953Z,40.94
2022-07-26T18:20:37.615Z,41.18
2022-07-26T18:23:04.324Z,41.80
2022-07-26T18:25:30.770Z,40.81
2022-07-26T18:27:57.293Z,41.83
2022-07-26T18:30:23.965Z,42.90
2022-07-26T18:32:50.552Z,40.39
2022-07-26T18:35:17.105Z,41.17
2022-07-26T18:37:43.557Z,42.46
2022-07-26T18:40:10.361Z,41.95
2022-07-26T18:42:37.811Z,40.47
2022-07-26T18:45:04.821Z,40.17
2022-07-26T18:47:31.377Z,39.84
2022-07-26T18:49:57.886Z,40.14
2022-07-26T18:52:31.543Z,41.55
2022-07-26T18:55:01.437Z,41.13
2022-07-26T18:57:27.932Z,41.14
2022-07-26T18:59:54.367Z,40.89
2022-07-26T19:02:20.843Z,39.60
2022-07-26T19:04:50.228Z,39.47
2022-07-26T19:07:16.866Z,40.71
2022-07-26T19:09:43.401Z,40.87
2022-07-26T19:12:09.957Z,40.04
2022-07-26T19:14:36.445Z,39.22
2022-07-26T19:17:02.916Z,40.13
2022-07-26T19:19:29.391Z,39.08
2022-07-26T19:21:55.841Z,39.80
2022-07-26T19:24:22.335Z,39.19
2022-07-26T19:26:48.911Z,39.46
2022-07-26T19:29:15.828Z,39.61
2022-07-26T19:31:45.843Z,39.49
2022-07-26T19:34:15.156Z,38.97
2022-07-26T19:36:41.997Z,39.28
2022-07-26T19:39:08.580Z,38.89
2022-07-26T19:41:35.219Z,38.67
2022-07-26T19:44:01.957Z,40.05
2022-07-26T19:46:28.607Z,39.58
2022-07-26T19:48:55.868Z,39.17
2022-07-26T19:51:22.364Z,39.04
2022-07-26T19:53:49.170Z,39.00
2022-07-26T19:56:15.704Z,40.82
2022-07-26T19:58:42.286Z,40.57
2022-07-26T20:01:08.842Z,39.77
2022-07-26T20:03:35.343Z,38.89
2022-07-26T20:06:01.827Z,39.25
2022-07-26T20:08:28.266Z,38.65
2022-07-26T20:10:54.791Z,38.88
2022-07-26T20:13:21.253Z,39.67
2022-07-26T20:15:47.955Z,38.97
2022-07-26T20:18:14.626Z,39.56
2022-07-26T20:20:41.643Z,39.59
2022-07-26T20:23:10.929Z,39.36
2022-07-26T20:25:37.408Z,40.17
2022-07-26T20:28:04.060Z,39.26
2022-07-26T20:30:30.721Z,39.41
2022-07-26T20:33:00.005Z,39.49
2022-07-26T20:35:26.507Z,38.71
2022-07-26T20:37:53.006Z,39.02
2022-07-26T20:40:19.459Z,39.10
2022-07-26T20:42:50.252Z,38.96
2022-07-26T20:45:17.495Z,39.34
2022-07-26T20:47:44.130Z,38.90
2022-07-26T20:50:12.472Z,38.97
2022-07-26T20:52:39.292Z,40.35
2022-07-26T20:55:06.397Z,41.25
2022-07-26T20:57:36.645Z,40.59
2022-07-26T21:00:07.786Z,41.33
2022-07-26T21:02:34.450Z,41.01
2022-07-26T21:05:01.072Z,40.22
2022-07-26T21:07:55.983Z,40.68
2022-07-26T21:10:14.304Z,42.25
2022-07-26T21:12:42.957Z,40.12
2022-07-26T21:15:10.095Z,40.19
2022-07-26T21:17:36.951Z,40.43
2022-07-26T21:20:05.095Z,41.22
2022-07-26T21:22:31.629Z,40.47
2022-07-26T21:24:58.117Z,40.87
2022-07-26T21:27:24.777Z,40.80
2022-07-26T21:29:51.278Z,42.90
2022-07-26T21:32:17.720Z,41.81
2022-07-26T21:34:44.290Z,44.27
2022-07-26T21:37:10.826Z,43.16
2022-07-26T21:39:37.314Z,44.54
2022-07-26T21:42:04.434Z,43.28
2022-07-26T21:44:30.892Z,42.86
2022-07-26T21:46:57.437Z,44.80
2022-07-26T21:49:24.009Z,42.13
2022-07-26T21:51:52.936Z,42.07
2022-07-26T21:54:19.399Z,41.80
2022-07-26T21:56:45.873Z,43.91
2022-07-26T21:59:12.943Z,42.47
2022-07-26T22:01:39.715Z,44.35
2022-07-26T22:04:06.256Z,43.06
2022-07-26T22:06:35.763Z,42.59
2022-07-26T22:09:02.766Z,43.02
2022-07-26T22:11:29.436Z,42.59
2022-07-26T22:13:55.897Z,41.58
2022-07-26T22:16:22.445Z,42.94
2022-07-26T22:18:48.925Z,42.82
2022-07-26T22:21:15.398Z,41.59
2022-07-26T22:23:41.938Z,40.88
2022-07-26T22:26:08.494Z,41.73
2022-07-26T22:28:35.020Z,42.05
2022-07-26T22:31:01.596Z,41.79
2022-07-26T22:33:28.057Z,43.65
2022-07-26T22:35:54.618Z,41.65
2022-07-26T22:38:21.142Z,41.94
2022-07-26T22:40:47.804Z,42.71
2022-07-26T22:43:15.063Z,41.74
2022-07-26T22:45:42.097Z,41.42
2022-07-26T22:48:11.594Z,42.04
2022-07-26T22:50:38.115Z,41.08
2022-07-26T22:53:04.855Z,41.21
2022-07-26T22:55:31.599Z,41.81
2022-07-26T22:57:58.319Z,41.90
2022-07-26T23:00:25.603Z,41.35
2022-07-26T23:02:52.142Z,40.93
2022-07-26T23:05:19.436Z,41.45
2022-07-26T23:07:48.125Z,42.67
2022-07-26T23:10:15.879Z,43.68
2022-07-26T23:12:42.607Z,42.76
2022-07-26T23:15:10.516Z,42.99
2022-07-26T23:17:37.917Z,42.78
2022-07-26T23:20:06.285Z,42.61
2022-07-26T23:22:33.912Z,42.55
2022-07-26T23:25:00.383Z,42.04
2022-07-26T23:27:26.864Z,42.14
2022-07-26T23:29:53.592Z,43.16
2022-07-26T23:32:20.093Z,42.93
2022-07-26T23:34:46.561Z,43.24
2022-07-26T23:37:13.149Z,43.52
2022-07-26T23:39:39.626Z,43.22
2022-07-26T23:42:07.196Z,43.74
2022-07-26T23:44:34.227Z,43.69
2022-07-26T23:47:00.812Z,44.39
2022-07-26T23:49:27.473Z,44.23
2022-07-26T23:51:54.090Z,46.79
2022-07-26T23:54:20.636Z,44.86
2022-07-26T23:56:47.485Z,44.36
2022-07-26T23:59:14.571Z,44.84
